sensor_id;sensor_type;location;lat;lon;timestamp;temperature;humidity
814;DHT22;389;48.710;9.392;2023-09-12T00:01:06;18.40;99.90
814;DHT22;389;48.710;9.392;2023-09-12T00:03:34;18.30;99.90
814;DHT22;389;48.710;9.392;2023-09-12T00:06:01;18.30;99.90
814;DHT22;389;48.710;9.392;2023-09-12T00:08:27;18.30;99.90
814;DHT22;389;48.710;9.392;2023-09-12T00:11:19;18.30;99.90
814;DHT22;389;48.710;9.392;2023-09-12T00:13:44;18.30;99.90
814;DHT22;389;48.710;9.392;2023-09-12T00:16:10;18.20;99.90
814;DHT22;389;48.710;9.392;2023-09-12T00:18:37;18.20;99.90
814;DHT22;389;48.710;9.392;2023-09-12T00:21:02;18.20;99.90
814;DHT22;389;48.710;9.392;2023-09-12T00:23:28;18.10;99.90
814;DHT22;389;48.710;9.392;2023-09-12T00:25:53;18.20;99.90
814;DHT22;389;48.710;9.392;2023-09-12T00:28:20;18.10;99.90
814;DHT22;389;48.710;9.392;2023-09-12T00:30:46;18.10;99.90
814;DHT22;389;48.710;9.392;2023-09-12T00:33:17;18.10;99.90
814;DHT22;389;48.710;9.392;2023-09-12T00:35:43;18.00;99.90
814;DHT22;389;48.710;9.392;2023-09-12T00:38:09;18.00;99.90
814;DHT22;389;48.710;9.392;2023-09-12T00:40:34;18.00;99.90
814;DHT22;389;48.710;9.392;2023-09-12T00:43:00;18.00;99.90
814;DHT22;389;48.710;9.392;2023-09-12T00:45:26;17.90;99.90
814;DHT22;389;48.710;9.392;2023-09-12T00:47:52;17.90;99.90
814;DHT22;389;48.710;9.392;2023-09-12T00:50:19;17.90;99.90
814;DHT22;389;48.710;9.392;2023-09-12T00:52:45;17.90;99.90
814;DHT22;389;48.710;9.392;2023-09-12T00:55:11;17.90;99.90
814;DHT22;389;48.710;9.392;2023-09-12T00:57:37;17.80;99.90
814;DHT22;389;48.710;9.392;2023-09-12T01:00:04;17.90;99.90
814;DHT22;389;48.710;9.392;2023-09-12T01:02:38;17.80;99.90
814;DHT22;389;48.710;9.392;2023-09-12T01:05:06;17.80;99.90
814;DHT22;389;48.710;9.392;2023-09-12T01:07:32;17.70;99.90
814;DHT22;389;48.710;9.392;2023-09-12T01:09:58;17.70;99.90
814;DHT22;389;48.710;9.392;2023-09-12T01:12:24;17.60;99.90
814;DHT22;389;48.710;9.392;2023-09-12T01:14:50;17.60;99.90
814;DHT22;389;48.710;9.392;2023-09-12T01:17:16;17.60;99.90
814;DHT22;389;48.710;9.392;2023-09-12T01:19:41;17.60;99.90
814;DHT22;389;48.710;9.392;2023-09-12T01:25:07;17.50;99.90
814;DHT22;389;48.710;9.392;2023-09-12T01:27:35;17.50;99.90
814;DHT22;389;48.710;9.392;2023-09-12T01:30:02;17.50;99.90
814;DHT22;389;48.710;9.392;2023-09-12T01:32:32;17.40;99.90
814;DHT22;389;48.710;9.392;2023-09-12T01:34:58;17.40;99.90
814;DHT22;389;48.710;9.392;2023-09-12T01:37:23;17.40;99.90
814;DHT22;389;48.710;9.392;2023-09-12T01:39:49;17.40;99.90
814;DHT22;389;48.710;9.392;2023-09-12T01:42:17;17.40;99.90
814;DHT22;389;48.710;9.392;2023-09-12T01:44:44;17.30;99.90
814;DHT22;389;48.710;9.392;2023-09-12T01:47:11;17.30;99.90
814;DHT22;389;48.710;9.392;2023-09-12T01:49:39;17.30;99.90
814;DHT22;389;48.710;9.392;2023-09-12T01:52:07;17.30;99.90
814;DHT22;389;48.710;9.392;2023-09-12T01:54:34;17.30;99.90
814;DHT22;389;48.710;9.392;2023-09-12T01:57:00;17.30;99.90
814;DHT22;389;48.710;9.392;2023-09-12T01:59:27;17.20;99.90
814;DHT22;389;48.710;9.392;2023-09-12T02:01:53;17.20;99.90
814;DHT22;389;48.710;9.392;2023-09-12T02:04:18;17.20;99.90
814;DHT22;389;48.710;9.392;2023-09-12T02:06:44;17.20;99.90
814;DHT22;389;48.710;9.392;2023-09-12T02:09:09;17.10;99.90
814;DHT22;389;48.710;9.392;2023-09-12T02:11:35;17.20;99.90
814;DHT22;389;48.710;9.392;2023-09-12T02:14:00;17.10;99.90
814;DHT22;389;48.710;9.392;2023-09-12T02:16:26;17.10;99.90
814;DHT22;389;48.710;9.392;2023-09-12T02:18:52;17.20;99.90
814;DHT22;389;48.710;9.392;2023-09-12T02:21:17;17.10;99.90
814;DHT22;389;48.710;9.392;2023-09-12T02:23:43;17.10;99.90
814;DHT22;389;48.710;9.392;2023-09-12T02:26:09;17.10;99.90
814;DHT22;389;48.710;9.392;2023-09-12T02:28:34;17.10;99.90
814;DHT22;389;48.710;9.392;2023-09-12T02:31:00;17.00;99.90
814;DHT22;389;48.710;9.392;2023-09-12T02:33:26;17.00;99.90
814;DHT22;389;48.710;9.392;2023-09-12T02:35:51;17.00;99.90
814;DHT22;389;48.710;9.392;2023-09-12T02:38:18;17.00;99.90
814;DHT22;389;48.710;9.392;2023-09-12T02:40:43;16.90;99.90
814;DHT22;389;48.710;9.392;2023-09-12T02:43:09;17.00;99.90
814;DHT22;389;48.710;9.392;2023-09-12T02:45:34;16.90;99.90
814;DHT22;389;48.710;9.392;2023-09-12T02:48:00;16.90;99.90
814;DHT22;389;48.710;9.392;2023-09-12T02:50:25;16.90;99.90
814;DHT22;389;48.710;9.392;2023-09-12T02:52:53;16.90;99.90
814;DHT22;389;48.710;9.392;2023-09-12T02:55:19;16.90;99.90
814;DHT22;389;48.710;9.392;2023-09-12T02:57:44;16.80;99.90
814;DHT22;389;48.710;9.392;2023-09-12T03:00:10;16.80;99.90
814;DHT22;389;48.710;9.392;2023-09-12T03:02:36;16.80;99.90
814;DHT22;389;48.710;9.392;2023-09-12T03:05:02;16.80;99.90
814;DHT22;389;48.710;9.392;2023-09-12T03:07:29;16.70;99.90
814;DHT22;389;48.710;9.392;2023-09-12T03:09:55;16.70;99.90
814;DHT22;389;48.710;9.392;2023-09-12T03:12:20;16.70;99.90
814;DHT22;389;48.710;9.392;2023-09-12T03:14:46;16.70;99.90
814;DHT22;389;48.710;9.392;2023-09-12T03:17:11;16.80;99.90
814;DHT22;389;48.710;9.392;2023-09-12T03:19:37;16.70;99.90
814;DHT22;389;48.710;9.392;2023-09-12T03:22:03;16.70;99.90
814;DHT22;389;48.710;9.392;2023-09-12T03:24:28;16.70;99.90
814;DHT22;389;48.710;9.392;2023-09-12T03:26:54;16.60;99.90
814;DHT22;389;48.710;9.392;2023-09-12T03:29:19;16.70;99.90
814;DHT22;389;48.710;9.392;2023-09-12T03:31:45;16.60;99.90
814;DHT22;389;48.710;9.392;2023-09-12T03:34:11;16.60;99.90
814;DHT22;389;48.710;9.392;2023-09-12T03:36:36;16.60;99.90
814;DHT22;389;48.710;9.392;2023-09-12T03:39:02;16.50;99.90
814;DHT22;389;48.710;9.392;2023-09-12T03:41:30;16.50;99.90
814;DHT22;389;48.710;9.392;2023-09-12T03:43:56;16.50;99.90
814;DHT22;389;48.710;9.392;2023-09-12T03:46:22;16.50;99.90
814;DHT22;389;48.710;9.392;2023-09-12T03:48:47;16.50;99.90
814;DHT22;389;48.710;9.392;2023-09-12T03:51:13;16.50;99.90
814;DHT22;389;48.710;9.392;2023-09-12T03:53:39;16.50;99.90
814;DHT22;389;48.710;9.392;2023-09-12T03:56:04;16.50;99.90
814;DHT22;389;48.710;9.392;2023-09-12T03:58:30;16.40;99.90
814;DHT22;389;48.710;9.392;2023-09-12T04:00:55;16.40;99.90
814;DHT22;389;48.710;9.392;2023-09-12T04:03:21;16.40;99.90
814;DHT22;389;48.710;9.392;2023-09-12T04:05:47;16.40;99.90
814;DHT22;389;48.710;9.392;2023-09-12T04:08:13;16.40;99.90
814;DHT22;389;48.710;9.392;2023-09-12T04:10:39;16.40;99.90
814;DHT22;389;48.710;9.392;2023-09-12T04:13:04;16.40;99.90
814;DHT22;389;48.710;9.392;2023-09-12T04:15:30;16.40;99.90
814;DHT22;389;48.710;9.392;2023-09-12T04:17:55;16.40;99.90
814;DHT22;389;48.710;9.392;2023-09-12T04:20:21;16.40;99.90
814;DHT22;389;48.710;9.392;2023-09-12T04:22:46;16.40;99.90
814;DHT22;389;48.710;9.392;2023-09-12T04:25:12;16.40;99.90
814;DHT22;389;48.710;9.392;2023-09-12T04:27:37;16.40;99.90
814;DHT22;389;48.710;9.392;2023-09-12T04:30:04;16.30;99.90
814;DHT22;389;48.710;9.392;2023-09-12T04:32:29;16.30;99.90
814;DHT22;389;48.710;9.392;2023-09-12T04:34:55;16.30;99.90
814;DHT22;389;48.710;9.392;2023-09-12T04:39:54;16.30;99.90
814;DHT22;389;48.710;9.392;2023-09-12T04:42:20;16.30;99.90
814;DHT22;389;48.710;9.392;2023-09-12T04:44:46;16.30;99.90
814;DHT22;389;48.710;9.392;2023-09-12T04:47:12;16.20;99.90
814;DHT22;389;48.710;9.392;2023-09-12T04:52:15;16.20;99.90
814;DHT22;389;48.710;9.392;2023-09-12T04:58:04;16.20;99.90
814;DHT22;389;48.710;9.392;2023-09-12T05:00:29;16.20;99.90
814;DHT22;389;48.710;9.392;2023-09-12T05:02:55;16.20;99.90
814;DHT22;389;48.710;9.392;2023-09-12T05:05:21;16.20;99.90
814;DHT22;389;48.710;9.392;2023-09-12T05:07:46;16.30;99.90
814;DHT22;389;48.710;9.392;2023-09-12T05:10:12;16.30;99.90
814;DHT22;389;48.710;9.392;2023-09-12T05:12:37;16.20;99.90
814;DHT22;389;48.710;9.392;2023-09-12T05:15:03;16.30;99.90
814;DHT22;389;48.710;9.392;2023-09-12T05:17:29;16.30;99.90
814;DHT22;389;48.710;9.392;2023-09-12T05:19:54;16.40;99.90
814;DHT22;389;48.710;9.392;2023-09-12T05:22:20;16.50;99.90
814;DHT22;389;48.710;9.392;2023-09-12T05:24:45;16.40;99.90
814;DHT22;389;48.710;9.392;2023-09-12T05:27:17;16.50;99.90
814;DHT22;389;48.710;9.392;2023-09-12T05:29:43;16.60;99.90
814;DHT22;389;48.710;9.392;2023-09-12T05:32:09;16.60;99.90
814;DHT22;389;48.710;9.392;2023-09-12T05:34:34;16.70;99.90
814;DHT22;389;48.710;9.392;2023-09-12T05:37:00;16.80;99.90
814;DHT22;389;48.710;9.392;2023-09-12T05:39:26;16.90;99.90
814;DHT22;389;48.710;9.392;2023-09-12T05:41:51;17.00;99.90
814;DHT22;389;48.710;9.392;2023-09-12T05:44:17;17.20;99.90
814;DHT22;389;48.710;9.392;2023-09-12T05:46:47;17.40;99.90
814;DHT22;389;48.710;9.392;2023-09-12T05:49:13;17.70;99.90
814;DHT22;389;48.710;9.392;2023-09-12T05:51:40;17.90;99.90
814;DHT22;389;48.710;9.392;2023-09-12T05:54:05;18.10;99.90
814;DHT22;389;48.710;9.392;2023-09-12T05:56:31;18.30;99.90
814;DHT22;389;48.710;9.392;2023-09-12T05:58:57;18.50;99.90
814;DHT22;389;48.710;9.392;2023-09-12T06:01:22;18.70;99.90
814;DHT22;389;48.710;9.392;2023-09-12T06:03:48;18.80;99.90
814;DHT22;389;48.710;9.392;2023-09-12T06:06:14;18.90;99.90
814;DHT22;389;48.710;9.392;2023-09-12T06:08:40;19.00;99.90
814;DHT22;389;48.710;9.392;2023-09-12T06:11:09;19.10;99.90
814;DHT22;389;48.710;9.392;2023-09-12T06:13:34;19.30;99.90
814;DHT22;389;48.710;9.392;2023-09-12T06:16:03;19.30;99.90
814;DHT22;389;48.710;9.392;2023-09-12T06:18:28;19.40;99.90
814;DHT22;389;48.710;9.392;2023-09-12T06:20:57;19.60;99.90
814;DHT22;389;48.710;9.392;2023-09-12T06:23:22;19.70;99.90
814;DHT22;389;48.710;9.392;2023-09-12T06:25:49;19.80;99.90
814;DHT22;389;48.710;9.392;2023-09-12T06:28:27;19.90;99.90
814;DHT22;389;48.710;9.392;2023-09-12T06:30:54;20.10;99.90
814;DHT22;389;48.710;9.392;2023-09-12T06:33:19;20.20;99.90
814;DHT22;389;48.710;9.392;2023-09-12T06:35:54;20.40;99.90
814;DHT22;389;48.710;9.392;2023-09-12T06:38:23;20.40;99.90
814;DHT22;389;48.710;9.392;2023-09-12T06:40:49;20.60;99.90
814;DHT22;389;48.710;9.392;2023-09-12T06:43:15;20.80;99.90
814;DHT22;389;48.710;9.392;2023-09-12T06:45:41;20.90;99.90
814;DHT22;389;48.710;9.392;2023-09-12T06:48:07;21.10;99.90
814;DHT22;389;48.710;9.392;2023-09-12T06:50:32;21.30;99.90
814;DHT22;389;48.710;9.392;2023-09-12T06:52:58;21.50;99.70
814;DHT22;389;48.710;9.392;2023-09-12T06:55:24;21.60;99.20
814;DHT22;389;48.710;9.392;2023-09-12T06:57:49;21.70;98.80
814;DHT22;389;48.710;9.392;2023-09-12T07:00:15;21.90;98.40
814;DHT22;389;48.710;9.392;2023-09-12T07:02:42;22.00;98.20
814;DHT22;389;48.710;9.392;2023-09-12T07:05:08;22.20;98.10
814;DHT22;389;48.710;9.392;2023-09-12T07:07:35;22.30;97.90
814;DHT22;389;48.710;9.392;2023-09-12T07:10:02;22.30;97.50
814;DHT22;389;48.710;9.392;2023-09-12T07:12:28;22.50;97.30
814;DHT22;389;48.710;9.392;2023-09-12T07:14:54;22.50;96.80
814;DHT22;389;48.710;9.392;2023-09-12T07:17:21;22.50;96.70
814;DHT22;389;48.710;9.392;2023-09-12T07:19:48;22.50;96.80
814;DHT22;389;48.710;9.392;2023-09-12T07:22:14;22.60;96.70
814;DHT22;389;48.710;9.392;2023-09-12T07:24:40;22.70;96.60
814;DHT22;389;48.710;9.392;2023-09-12T07:27:05;22.80;96.70
814;DHT22;389;48.710;9.392;2023-09-12T07:29:32;22.90;96.70
814;DHT22;389;48.710;9.392;2023-09-12T07:31:58;23.00;96.20
814;DHT22;389;48.710;9.392;2023-09-12T07:34:25;23.10;96.20
814;DHT22;389;48.710;9.392;2023-09-12T07:36:51;23.10;95.60
814;DHT22;389;48.710;9.392;2023-09-12T07:39:17;23.20;95.60
814;DHT22;389;48.710;9.392;2023-09-12T07:41:44;23.20;95.50
814;DHT22;389;48.710;9.392;2023-09-12T07:44:11;23.20;95.50
814;DHT22;389;48.710;9.392;2023-09-12T07:46:37;23.30;95.30
814;DHT22;389;48.710;9.392;2023-09-12T07:49:03;23.30;95.50
814;DHT22;389;48.710;9.392;2023-09-12T07:51:29;23.30;95.40
814;DHT22;389;48.710;9.392;2023-09-12T07:53:54;23.40;95.40
814;DHT22;389;48.710;9.392;2023-09-12T07:56:20;23.50;95.80
814;DHT22;389;48.710;9.392;2023-09-12T07:58:45;23.60;95.40
814;DHT22;389;48.710;9.392;2023-09-12T08:01:13;23.70;95.10
814;DHT22;389;48.710;9.392;2023-09-12T08:03:39;23.90;95.20
814;DHT22;389;48.710;9.392;2023-09-12T08:06:05;24.10;95.00
814;DHT22;389;48.710;9.392;2023-09-12T08:08:31;24.30;94.60
814;DHT22;389;48.710;9.392;2023-09-12T08:10:57;24.50;94.00
814;DHT22;389;48.710;9.392;2023-09-12T08:13:26;24.70;93.90
814;DHT22;389;48.710;9.392;2023-09-12T08:15:53;24.80;93.70
814;DHT22;389;48.710;9.392;2023-09-12T08:18:19;25.00;93.50
814;DHT22;389;48.710;9.392;2023-09-12T08:20:44;25.10;93.10
814;DHT22;389;48.710;9.392;2023-09-12T08:23:10;25.20;92.70
814;DHT22;389;48.710;9.392;2023-09-12T08:25:35;25.30;92.60
814;DHT22;389;48.710;9.392;2023-09-12T08:28:01;25.40;92.70
814;DHT22;389;48.710;9.392;2023-09-12T08:30:27;25.50;92.50
814;DHT22;389;48.710;9.392;2023-09-12T08:32:55;25.60;92.30
814;DHT22;389;48.710;9.392;2023-09-12T08:35:21;25.80;92.30
814;DHT22;389;48.710;9.392;2023-09-12T08:37:46;25.80;92.00
814;DHT22;389;48.710;9.392;2023-09-12T08:40:13;25.90;91.90
814;DHT22;389;48.710;9.392;2023-09-12T08:42:40;26.10;92.00
814;DHT22;389;48.710;9.392;2023-09-12T08:45:12;26.20;91.50
814;DHT22;389;48.710;9.392;2023-09-12T08:47:41;26.40;91.40
814;DHT22;389;48.710;9.392;2023-09-12T08:50:13;26.50;91.10
814;DHT22;389;48.710;9.392;2023-09-12T08:52:40;26.70;90.80
814;DHT22;389;48.710;9.392;2023-09-12T08:55:07;27.00;90.90
814;DHT22;389;48.710;9.392;2023-09-12T08:57:33;27.20;90.70
814;DHT22;389;48.710;9.392;2023-09-12T09:00:01;27.40;90.50
814;DHT22;389;48.710;9.392;2023-09-12T09:02:43;27.60;90.20
814;DHT22;389;48.710;9.392;2023-09-12T09:05:10;27.60;89.70
814;DHT22;389;48.710;9.392;2023-09-12T09:07:45;27.60;89.60
814;DHT22;389;48.710;9.392;2023-09-12T09:10:14;27.50;89.50
814;DHT22;389;48.710;9.392;2023-09-12T09:12:42;27.50;89.80
814;DHT22;389;48.710;9.392;2023-09-12T09:15:24;27.50;90.10
814;DHT22;389;48.710;9.392;2023-09-12T09:17:52;27.50;90.20
814;DHT22;389;48.710;9.392;2023-09-12T09:20:29;27.50;89.90
814;DHT22;389;48.710;9.392;2023-09-12T09:23:03;27.50;89.50
814;DHT22;389;48.710;9.392;2023-09-12T09:25:39;27.60;89.40
814;DHT22;389;48.710;9.392;2023-09-12T09:28:15;27.60;89.00
814;DHT22;389;48.710;9.392;2023-09-12T09:30:43;27.60;89.30
814;DHT22;389;48.710;9.392;2023-09-12T09:33:09;27.50;88.40
814;DHT22;389;48.710;9.392;2023-09-12T09:35:35;27.50;88.50
814;DHT22;389;48.710;9.392;2023-09-12T09:38:03;27.50;88.10
814;DHT22;389;48.710;9.392;2023-09-12T09:40:31;27.50;87.80
814;DHT22;389;48.710;9.392;2023-09-12T09:42:59;27.50;87.90
814;DHT22;389;48.710;9.392;2023-09-12T09:45:26;27.40;88.30
814;DHT22;389;48.710;9.392;2023-09-12T09:47:51;27.50;87.70
814;DHT22;389;48.710;9.392;2023-09-12T09:50:17;27.50;87.70
814;DHT22;389;48.710;9.392;2023-09-12T09:52:43;27.50;87.60
814;DHT22;389;48.710;9.392;2023-09-12T09:55:15;27.50;88.30
814;DHT22;389;48.710;9.392;2023-09-12T09:57:41;27.50;88.10
814;DHT22;389;48.710;9.392;2023-09-12T10:00:07;27.60;88.10
814;DHT22;389;48.710;9.392;2023-09-12T10:02:38;27.60;87.80
814;DHT22;389;48.710;9.392;2023-09-12T10:05:05;27.70;87.40
814;DHT22;389;48.710;9.392;2023-09-12T10:07:37;27.70;87.10
814;DHT22;389;48.710;9.392;2023-09-12T10:10:04;27.80;87.60
814;DHT22;389;48.710;9.392;2023-09-12T10:12:31;27.90;87.00
814;DHT22;389;48.710;9.392;2023-09-12T10:14:59;28.00;87.00
814;DHT22;389;48.710;9.392;2023-09-12T10:17:31;28.10;86.70
814;DHT22;389;48.710;9.392;2023-09-12T10:20:03;28.20;86.60
814;DHT22;389;48.710;9.392;2023-09-12T10:22:38;28.20;85.90
814;DHT22;389;48.710;9.392;2023-09-12T10:25:06;28.30;86.70
814;DHT22;389;48.710;9.392;2023-09-12T10:27:33;28.40;86.40
814;DHT22;389;48.710;9.392;2023-09-12T10:29:59;28.50;85.60
814;DHT22;389;48.710;9.392;2023-09-12T10:32:26;28.60;85.60
814;DHT22;389;48.710;9.392;2023-09-12T10:34:54;28.80;85.20
814;DHT22;389;48.710;9.392;2023-09-12T10:37:22;28.90;83.50
814;DHT22;389;48.710;9.392;2023-09-12T10:39:49;28.90;83.40
814;DHT22;389;48.710;9.392;2023-09-12T10:42:16;29.00;83.50
814;DHT22;389;48.710;9.392;2023-09-12T10:44:43;29.20;83.10
814;DHT22;389;48.710;9.392;2023-09-12T10:47:09;29.20;82.20
814;DHT22;389;48.710;9.392;2023-09-12T10:49:35;29.30;81.70
814;DHT22;389;48.710;9.392;2023-09-12T10:52:33;29.40;81.80
814;DHT22;389;48.710;9.392;2023-09-12T10:55:16;29.40;81.90
814;DHT22;389;48.710;9.392;2023-09-12T10:58:03;29.50;82.00
814;DHT22;389;48.710;9.392;2023-09-12T11:00:29;29.60;82.10
814;DHT22;389;48.710;9.392;2023-09-12T11:03:39;29.70;81.70
814;DHT22;389;48.710;9.392;2023-09-12T11:06:04;29.80;81.50
814;DHT22;389;48.710;9.392;2023-09-12T11:08:35;29.90;81.50
814;DHT22;389;48.710;9.392;2023-09-12T11:11:19;29.90;81.70
814;DHT22;389;48.710;9.392;2023-09-12T11:14:11;30.10;81.50
814;DHT22;389;48.710;9.392;2023-09-12T11:16:37;30.10;80.60
814;DHT22;389;48.710;9.392;2023-09-12T11:19:19;30.30;79.70
814;DHT22;389;48.710;9.392;2023-09-12T11:21:53;30.40;78.80
814;DHT22;389;48.710;9.392;2023-09-12T11:24:20;30.40;78.50
814;DHT22;389;48.710;9.392;2023-09-12T11:26:59;30.50;77.10
814;DHT22;389;48.710;9.392;2023-09-12T11:29:36;30.60;76.50
814;DHT22;389;48.710;9.392;2023-09-12T11:32:03;30.70;76.00
814;DHT22;389;48.710;9.392;2023-09-12T11:34:45;30.70;75.90
814;DHT22;389;48.710;9.392;2023-09-12T11:37:22;30.80;75.70
814;DHT22;389;48.710;9.392;2023-09-12T11:39:48;31.00;74.90
814;DHT22;389;48.710;9.392;2023-09-12T11:42:16;31.00;73.80
814;DHT22;389;48.710;9.392;2023-09-12T11:44:41;31.20;73.50
814;DHT22;389;48.710;9.392;2023-09-12T11:47:10;31.30;72.00
814;DHT22;389;48.710;9.392;2023-09-12T11:49:41;31.30;71.60
814;DHT22;389;48.710;9.392;2023-09-12T11:52:11;31.30;71.00
814;DHT22;389;48.710;9.392;2023-09-12T11:54:42;31.40;70.00
814;DHT22;389;48.710;9.392;2023-09-12T11:57:09;31.50;68.50
814;DHT22;389;48.710;9.392;2023-09-12T11:59:39;31.50;66.70
814;DHT22;389;48.710;9.392;2023-09-12T12:02:07;31.60;66.90
814;DHT22;389;48.710;9.392;2023-09-12T12:04:33;31.60;66.10
814;DHT22;389;48.710;9.392;2023-09-12T12:07:00;31.70;65.50
814;DHT22;389;48.710;9.392;2023-09-12T12:09:27;31.70;65.80
814;DHT22;389;48.710;9.392;2023-09-12T12:11:52;31.80;64.90
814;DHT22;389;48.710;9.392;2023-09-12T12:14:18;31.80;63.40
814;DHT22;389;48.710;9.392;2023-09-12T12:16:46;31.90;62.10
814;DHT22;389;48.710;9.392;2023-09-12T12:19:13;32.00;62.30
814;DHT22;389;48.710;9.392;2023-09-12T12:21:40;32.00;61.80
814;DHT22;389;48.710;9.392;2023-09-12T12:24:15;32.10;59.00
814;DHT22;389;48.710;9.392;2023-09-12T12:26:44;32.10;58.50
814;DHT22;389;48.710;9.392;2023-09-12T12:29:11;32.20;57.40
814;DHT22;389;48.710;9.392;2023-09-12T12:31:40;32.30;57.30
814;DHT22;389;48.710;9.392;2023-09-12T12:34:05;32.40;57.10
814;DHT22;389;48.710;9.392;2023-09-12T12:36:31;32.40;56.80
814;DHT22;389;48.710;9.392;2023-09-12T12:38:57;32.50;56.00
814;DHT22;389;48.710;9.392;2023-09-12T12:41:28;32.60;56.30
814;DHT22;389;48.710;9.392;2023-09-12T12:43:57;32.60;57.20
814;DHT22;389;48.710;9.392;2023-09-12T12:46:26;32.60;57.70
814;DHT22;389;48.710;9.392;2023-09-12T12:48:52;32.60;57.60
814;DHT22;389;48.710;9.392;2023-09-12T12:51:25;32.70;57.50
814;DHT22;389;48.710;9.392;2023-09-12T12:54:02;32.70;57.40
814;DHT22;389;48.710;9.392;2023-09-12T12:56:29;32.80;57.30
814;DHT22;389;48.710;9.392;2023-09-12T12:58:56;32.80;57.10
814;DHT22;389;48.710;9.392;2023-09-12T13:01:28;32.90;56.30
814;DHT22;389;48.710;9.392;2023-09-12T13:03:54;33.00;55.60
814;DHT22;389;48.710;9.392;2023-09-12T13:06:22;33.00;55.80
814;DHT22;389;48.710;9.392;2023-09-12T13:08:49;33.10;56.00
814;DHT22;389;48.710;9.392;2023-09-12T13:11:15;33.10;56.00
814;DHT22;389;48.710;9.392;2023-09-12T13:13:42;33.20;56.20
814;DHT22;389;48.710;9.392;2023-09-12T13:16:09;33.30;56.30
814;DHT22;389;48.710;9.392;2023-09-12T13:18:39;33.20;55.40
814;DHT22;389;48.710;9.392;2023-09-12T13:21:05;33.30;55.50
814;DHT22;389;48.710;9.392;2023-09-12T13:23:35;33.30;55.40
814;DHT22;389;48.710;9.392;2023-09-12T13:26:00;33.50;55.70
814;DHT22;389;48.710;9.392;2023-09-12T13:28:26;33.50;55.30
814;DHT22;389;48.710;9.392;2023-09-12T13:30:52;33.60;55.20
814;DHT22;389;48.710;9.392;2023-09-12T13:33:18;33.60;55.00
814;DHT22;389;48.710;9.392;2023-09-12T13:35:44;33.70;54.90
814;DHT22;389;48.710;9.392;2023-09-12T13:38:10;33.80;54.80
814;DHT22;389;48.710;9.392;2023-09-12T13:40:39;33.90;55.00
814;DHT22;389;48.710;9.392;2023-09-12T13:43:06;34.00;55.20
814;DHT22;389;48.710;9.392;2023-09-12T13:45:32;34.00;54.00
814;DHT22;389;48.710;9.392;2023-09-12T13:47:59;34.00;53.70
814;DHT22;389;48.710;9.392;2023-09-12T13:50:26;34.10;53.50
814;DHT22;389;48.710;9.392;2023-09-12T13:52:54;34.00;53.70
814;DHT22;389;48.710;9.392;2023-09-12T13:55:20;34.10;54.00
814;DHT22;389;48.710;9.392;2023-09-12T13:57:45;34.10;53.90
814;DHT22;389;48.710;9.392;2023-09-12T14:00:11;34.10;53.60
814;DHT22;389;48.710;9.392;2023-09-12T14:02:37;34.10;54.20
814;DHT22;389;48.710;9.392;2023-09-12T14:05:03;34.20;54.20
814;DHT22;389;48.710;9.392;2023-09-12T14:07:28;34.10;53.20
814;DHT22;389;48.710;9.392;2023-09-12T14:09:57;34.10;52.80
814;DHT22;389;48.710;9.392;2023-09-12T14:12:23;34.00;52.90
814;DHT22;389;48.710;9.392;2023-09-12T14:14:49;34.00;53.00
814;DHT22;389;48.710;9.392;2023-09-12T14:17:14;33.90;53.90
814;DHT22;389;48.710;9.392;2023-09-12T14:19:40;34.00;54.10
814;DHT22;389;48.710;9.392;2023-09-12T14:22:06;34.00;53.80
814;DHT22;389;48.710;9.392;2023-09-12T14:24:31;34.00;54.10
814;DHT22;389;48.710;9.392;2023-09-12T14:26:57;34.00;54.50
814;DHT22;389;48.710;9.392;2023-09-12T14:29:22;34.00;53.50
814;DHT22;389;48.710;9.392;2023-09-12T14:31:49;33.90;53.70
814;DHT22;389;48.710;9.392;2023-09-12T14:34:19;33.80;54.90
814;DHT22;389;48.710;9.392;2023-09-12T14:36:44;33.60;55.80
814;DHT22;389;48.710;9.392;2023-09-12T14:39:13;33.40;56.50
814;DHT22;389;48.710;9.392;2023-09-12T14:41:40;33.20;56.60
814;DHT22;389;48.710;9.392;2023-09-12T14:44:05;33.00;57.20
814;DHT22;389;48.710;9.392;2023-09-12T14:46:31;32.80;57.70
814;DHT22;389;48.710;9.392;2023-09-12T14:48:57;32.60;57.90
814;DHT22;389;48.710;9.392;2023-09-12T14:51:23;32.40;58.40
814;DHT22;389;48.710;9.392;2023-09-12T14:53:48;32.30;58.80
814;DHT22;389;48.710;9.392;2023-09-12T14:56:14;32.20;59.00
814;DHT22;389;48.710;9.392;2023-09-12T14:58:39;32.10;58.80
814;DHT22;389;48.710;9.392;2023-09-12T15:01:05;32.10;58.90
814;DHT22;389;48.710;9.392;2023-09-12T15:03:31;32.00;59.60
814;DHT22;389;48.710;9.392;2023-09-12T15:06:04;31.90;59.50
814;DHT22;389;48.710;9.392;2023-09-12T15:08:29;31.90;59.60
814;DHT22;389;48.710;9.392;2023-09-12T15:10:55;32.00;60.40
814;DHT22;389;48.710;9.392;2023-09-12T15:13:21;31.90;60.10
814;DHT22;389;48.710;9.392;2023-09-12T15:15:46;31.80;61.40
814;DHT22;389;48.710;9.392;2023-09-12T15:18:12;31.80;61.20
814;DHT22;389;48.710;9.392;2023-09-12T15:20:38;31.80;60.80
814;DHT22;389;48.710;9.392;2023-09-12T15:23:03;31.80;60.60
814;DHT22;389;48.710;9.392;2023-09-12T15:25:31;31.70;61.40
814;DHT22;389;48.710;9.392;2023-09-12T15:27:58;31.60;59.40
814;DHT22;389;48.710;9.392;2023-09-12T15:30:24;31.50;59.30
814;DHT22;389;48.710;9.392;2023-09-12T15:32:49;31.50;60.00
814;DHT22;389;48.710;9.392;2023-09-12T15:35:15;31.40;59.60
814;DHT22;389;48.710;9.392;2023-09-12T15:37:41;31.40;59.90
814;DHT22;389;48.710;9.392;2023-09-12T15:40:07;31.50;60.10
814;DHT22;389;48.710;9.392;2023-09-12T15:42:33;31.50;60.50
814;DHT22;389;48.710;9.392;2023-09-12T15:44:58;31.50;59.90
814;DHT22;389;48.710;9.392;2023-09-12T15:47:24;31.40;60.00
814;DHT22;389;48.710;9.392;2023-09-12T15:49:50;31.40;60.40
814;DHT22;389;48.710;9.392;2023-09-12T15:52:15;31.20;60.70
814;DHT22;389;48.710;9.392;2023-09-12T15:54:41;31.20;62.70
814;DHT22;389;48.710;9.392;2023-09-12T15:57:06;31.20;63.10
814;DHT22;389;48.710;9.392;2023-09-12T15:59:32;31.10;65.30
814;DHT22;389;48.710;9.392;2023-09-12T16:01:58;31.00;66.50
814;DHT22;389;48.710;9.392;2023-09-12T16:04:24;30.90;67.20
814;DHT22;389;48.710;9.392;2023-09-12T16:06:52;30.80;67.60
814;DHT22;389;48.710;9.392;2023-09-12T16:09:17;30.80;68.60
814;DHT22;389;48.710;9.392;2023-09-12T16:11:43;30.60;69.40
814;DHT22;389;48.710;9.392;2023-09-12T16:14:09;30.50;69.60
814;DHT22;389;48.710;9.392;2023-09-12T16:16:35;30.30;69.70
814;DHT22;389;48.710;9.392;2023-09-12T16:19:01;30.20;70.30
814;DHT22;389;48.710;9.392;2023-09-12T16:21:27;30.00;70.60
814;DHT22;389;48.710;9.392;2023-09-12T16:23:54;29.90;70.70
814;DHT22;389;48.710;9.392;2023-09-12T16:26:20;29.80;71.10
814;DHT22;389;48.710;9.392;2023-09-12T16:28:45;29.70;71.50
814;DHT22;389;48.710;9.392;2023-09-12T16:31:11;29.60;72.60
814;DHT22;389;48.710;9.392;2023-09-12T16:33:36;29.50;73.20
814;DHT22;389;48.710;9.392;2023-09-12T16:36:02;29.50;73.40
814;DHT22;389;48.710;9.392;2023-09-12T16:38:28;29.40;73.80
814;DHT22;389;48.710;9.392;2023-09-12T16:40:53;29.40;74.20
814;DHT22;389;48.710;9.392;2023-09-12T16:43:20;29.40;74.90
814;DHT22;389;48.710;9.392;2023-09-12T16:45:45;29.40;75.10